Time;durP1;ratioP1;P1;durP2;ratioP2;P2;SDS_P1;SDS_P2;PMS_P1;PMS_P2;Temp;Humidity;BMP_temperature;BMP_pressure;BME280_temperature;BME280_humidity;BME280_pressure;Samples;Min_cycle;Max_cycle;Signal;HPM_P1;HPM_P2
2023/10/11 00:00:24;;;;;;;2.83;1.85;;;;;;;13.31;100.00;98858.09;4150641;28;20214;-51
2023/10/11 00:02:26;;;;;;;2.50;2.15;;;;;;;13.34;100.00;98846.59;4156927;28;20224;-50
2023/10/11 00:04:28;;;;;;;2.97;1.90;;;;;;;13.30;100.00;98858.38;4139786;28;20210;-51
2023/10/11 00:06:33;;;;;;;2.00;1.80;;;;;;;13.32;100.00;98848.78;4151202;28;20212;-51
2023/10/11 00:08:41;;;;;;;3.10;1.58;;;;;;;13.26;100.00;98849.84;4148089;28;20220;-50
2023/10/11 00:10:53;;;;;;;2.55;1.75;;;;;;;13.21;100.00;98847.03;4151713;28;20200;-50
2023/10/11 00:12:58;;;;;;;3.00;1.63;;;;;;;13.26;100.00;98854.50;4156278;28;20311;-49
2023/10/11 00:15:00;;;;;;;2.70;2.33;;;;;;;13.22;100.00;98854.16;4151704;28;20259;-52
2023/10/11 00:17:04;;;;;;;3.08;1.63;;;;;;;13.22;100.00;98851.44;4155025;28;20213;-51
2023/10/11 00:19:09;;;;;;;2.42;1.52;;;;;;;13.21;100.00;98855.25;4148273;28;20700;-55
2023/10/11 00:21:15;;;;;;;1.15;0.82;;;;;;;13.23;100.00;98855.81;4158956;28;20304;-52
2023/10/11 00:23:21;;;;;;;2.15;1.80;;;;;;;13.23;100.00;98864.06;4150868;28;20951;-53
2023/10/11 00:25:27;;;;;;;2.72;1.95;;;;;;;13.29;100.00;98854.78;4156443;28;20656;-52
2023/10/11 00:27:29;;;;;;;3.30;2.13;;;;;;;13.21;100.00;98851.69;4151963;28;20293;-53
2023/10/11 00:29:39;;;;;;;3.05;1.90;;;;;;;13.21;100.00;98852.53;4155295;28;20247;-53
2023/10/11 00:31:41;;;;;;;2.10;1.40;;;;;;;13.08;100.00;98852.91;4151509;28;20230;-51
2023/10/11 00:33:42;;;;;;;3.20;1.83;;;;;;;13.10;100.00;98849.94;4152241;28;21157;-51
2023/10/11 00:35:47;;;;;;;12.52;1.77;;;;;;;13.12;100.00;98845.84;4149524;28;20219;-51
2023/10/11 00:37:51;;;;;;;2.78;2.08;;;;;;;13.18;100.00;98852.19;4150152;28;20268;-53
2023/10/11 00:39:54;;;;;;;1.50;1.30;;;;;;;13.23;100.00;98850.34;4154799;28;20204;-50
2023/10/11 00:41:56;;;;;;;2.03;1.83;;;;;;;13.12;100.00;98845.84;4154251;28;20232;-50
2023/10/11 00:43:58;;;;;;;1.13;1.00;;;;;;;13.10;100.00;98849.94;4155491;28;20215;-54
2023/10/11 00:46:02;;;;;;;1.88;1.77;;;;;;;13.13;100.00;98843.91;4163402;28;20212;-54
2023/10/11 00:48:06;;;;;;;1.83;1.38;;;;;;;13.04;100.00;98850.97;4152194;28;20228;-50
2023/10/11 00:50:14;;;;;;;4.15;2.60;;;;;;;13.01;100.00;98843.22;4141933;28;20209;-51
2023/10/11 00:52:16;;;;;;;1.85;1.25;;;;;;;13.02;100.00;98840.22;4158234;28;20306;-49
2023/10/11 00:54:21;;;;;;;8.75;2.22;;;;;;;12.88;100.00;98847.16;4151844;28;20614;-52
2023/10/11 00:56:26;;;;;;;3.83;1.98;;;;;;;12.89;100.00;98837.03;4140239;28;20712;-52
2023/10/11 00:58:28;;;;;;;2.28;1.85;;;;;;;12.84;100.00;98837.75;4150162;28;21988;-51
2023/10/11 01:00:35;;;;;;;2.20;1.70;;;;;;;12.86;100.00;98843.00;4147196;28;20216;-50
2023/10/11 01:02:37;;;;;;;2.22;1.50;;;;;;;12.73;100.00;98841.50;4152034;28;20720;-51
2023/10/11 01:04:42;;;;;;;2.50;2.15;;;;;;;12.67;100.00;98834.28;4151626;28;20304;-50
2023/10/11 01:06:47;;;;;;;2.65;2.03;;;;;;;12.65;100.00;98832.88;4152415;28;20201;-49
2023/10/11 01:08:49;;;;;;;3.75;1.42;;;;;;;12.66;100.00;98835.38;4149900;28;20277;-51
2023/10/11 01:10:51;;;;;;;3.35;1.77;;;;;;;12.62;100.00;98820.47;4149616;28;20283;-50
2023/10/11 01:12:53;;;;;;;3.63;1.55;;;;;;;12.54;100.00;98829.16;4150473;28;20607;-50
2023/10/11 01:14:58;;;;;;;2.13;1.73;;;;;;;12.55;100.00;98825.34;4152858;28;20215;-52
2023/10/11 01:17:00;;;;;;;2.80;1.67;;;;;;;12.55;100.00;98819.84;4138200;28;20284;-50
2023/10/11 01:22:19;;;;;;;3.30;2.10;;;;;;;12.54;100.00;98831.91;4163413;28;20332;-51
2023/10/11 01:24:21;;;;;;;2.40;1.70;;;;;;;12.43;100.00;98827.34;4157324;28;20275;-54
2023/10/11 01:26:23;;;;;;;2.58;2.15;;;;;;;12.41;100.00;98821.31;4149865;28;20826;-50
2023/10/11 01:28:24;;;;;;;6.03;2.17;;;;;;;12.37;100.00;98828.38;4141501;28;20227;-51
2023/10/11 01:30:27;;;;;;;2.90;1.80;;;;;;;12.37;100.00;98828.38;4149511;28;20204;-50
2023/10/11 01:32:29;;;;;;;8.30;1.88;;;;;;;12.32;100.00;98828.31;4148219;28;20238;-50
2023/10/11 01:34:32;;;;;;;1.33;1.20;;;;;;;12.36;100.00;98821.22;4154979;28;20311;-53
2023/10/11 01:36:34;;;;;;;2.15;1.95;;;;;;;12.31;100.00;98829.38;4153367;28;20204;-49
2023/10/11 01:38:48;;;;;;;2.45;1.80;;;;;;;12.33;100.00;98827.25;4154885;28;20219;-50
2023/10/11 01:40:54;;;;;;;3.03;1.90;;;;;;;12.31;100.00;98818.41;4152259;28;20597;-52
2023/10/11 01:42:56;;;;;;;3.55;1.60;;;;;;;12.38;100.00;98816.31;4156180;28;20224;-54
2023/10/11 01:44:57;;;;;;;2.05;1.35;;;;;;;12.30;100.00;98818.69;4155021;28;20209;-49
2023/10/11 01:47:01;;;;;;;2.67;2.25;;;;;;;12.25;100.00;98808.44;4156526;28;20609;-51
2023/10/11 01:49:05;;;;;;;2.30;2.10;;;;;;;12.25;100.00;98808.44;4142665;28;20209;-50
2023/10/11 01:51:09;;;;;;;2.20;1.92;;;;;;;12.30;100.00;98811.25;4152222;28;20205;-50
2023/10/11 01:53:14;;;;;;;3.00;1.75;;;;;;;12.18;100.00;98799.56;4138376;28;20334;-50
2023/10/11 01:55:17;;;;;;;2.92;1.75;;;;;;;12.14;100.00;98795.69;4138961;28;20202;-49
2023/10/11 01:57:19;;;;;;;4.65;2.63;;;;;;;12.14;100.00;98805.81;4152201;28;20224;-52
2023/10/11 01:59:20;;;;;;;3.20;1.92;;;;;;;12.16;100.00;98787.22;4154864;28;20548;-53
2023/10/11 02:01:30;;;;;;;3.72;3.42;;;;;;;12.12;100.00;98800.56;4156524;28;20259;-53
2023/10/11 02:03:32;;;;;;;3.13;2.83;;;;;;;12.09;100.00;98792.88;4167936;28;20257;-53
2023/10/11 02:05:33;;;;;;;2.97;2.67;;;;;;;12.08;100.00;98791.22;4142627;28;20703;-50
2023/10/11 02:07:35;;;;;;;6.78;2.47;;;;;;;12.09;100.00;98789.28;4154704;28;20204;-51
2023/10/11 02:09:37;;;;;;;2.90;2.58;;;;;;;12.07;100.00;98792.28;4154927;28;20262;-50
2023/10/11 02:11:42;;;;;;;2.90;2.42;;;;;;;12.11;100.00;98801.66;4157922;28;20212;-49
2023/10/11 02:13:44;;;;;;;3.15;2.83;;;;;;;12.16;100.00;98792.69;4153019;28;20211;-52
2023/10/11 02:15:47;;;;;;;3.08;2.60;;;;;;;12.24;100.00;98801.31;4156458;28;20209;-50
2023/10/11 02:17:51;;;;;;;3.40;2.10;;;;;;;12.29;100.00;98786.81;4151518;28;20232;-50
2023/10/11 02:19:53;;;;;;;3.47;2.28;;;;;;;12.33;100.00;98783.34;4151852;28;20304;-50
2023/10/11 02:21:55;;;;;;;2.67;2.22;;;;;;;12.14;100.00;98786.63;4152483;28;20711;-51
2023/10/11 02:23:58;;;;;;;2.72;2.42;;;;;;;12.19;100.00;98782.03;4153648;28;20307;-50
2023/10/11 02:26:01;;;;;;;1.77;1.42;;;;;;;12.14;100.00;98787.47;4154232;28;20275;-49
2023/10/11 02:28:07;;;;;;;2.58;1.88;;;;;;;12.12;100.00;98791.53;4153143;28;20197;-50
2023/10/11 02:30:14;;;;;;;1.98;1.85;;;;;;;12.03;100.00;98782.09;4170233;28;20658;-51
2023/10/11 02:32:16;;;;;;;7.57;1.65;;;;;;;11.98;100.00;98790.25;4152993;28;20271;-52
2023/10/11 02:34:19;;;;;;;3.42;1.98;;;;;;;11.97;100.00;98789.41;4154721;28;20228;-50
2023/10/11 02:36:20;;;;;;;2.85;2.63;;;;;;;11.93;100.00;98788.25;4150410;28;20213;-54
2023/10/11 02:38:23;;;;;;;2.92;2.65;;;;;;;11.91;100.00;98789.59;4152328;28;20228;-50
2023/10/11 02:40:25;;;;;;;3.83;1.83;;;;;;;11.93;100.00;98782.78;4151510;28;20267;-49
2023/10/11 02:42:26;;;;;;;2.15;2.05;;;;;;;11.89;100.00;98787.09;4151765;28;20298;-52
2023/10/11 02:44:29;;;;;;;3.17;2.45;;;;;;;11.83;100.00;98788.09;4152754;28;20213;-52
2023/10/11 02:46:33;;;;;;;2.17;1.88;;;;;;;12.08;100.00;98791.22;4153852;28;20268;-48
2023/10/11 02:48:35;;;;;;;3.25;2.95;;;;;;;12.00;100.00;98783.41;4152257;28;20247;-49
2023/10/11 02:50:37;;;;;;;3.55;2.10;;;;;;;11.88;100.00;98779.94;4152954;28;20216;-51
2023/10/11 02:52:40;;;;;;;3.60;3.28;;;;;;;11.99;100.00;98776.28;4156643;28;20235;-49
2023/10/11 02:54:42;;;;;;;2.55;2.28;;;;;;;12.19;100.00;98787.53;4141461;28;20947;-48
2023/10/11 02:56:47;;;;;;;4.13;3.65;;;;;;;12.05;100.00;98791.69;4153493;28;20216;-49
2023/10/11 02:58:49;;;;;;;3.10;2.10;;;;;;;12.17;100.00;98786.94;4158196;28;20220;-50
2023/10/11 03:00:56;;;;;;;3.28;3.00;;;;;;;12.03;100.00;98788.38;4154597;28;20205;-52
2023/10/11 03:03:17;;;;;;;3.78;3.47;;;;;;;11.96;100.00;98787.75;4154857;28;20658;-50
2023/10/11 03:05:27;;;;;;;3.67;2.35;;;;;;;11.96;100.00;98787.75;4157682;28;20227;-50
2023/10/11 03:07:33;;;;;;;3.58;2.85;;;;;;;11.91;100.00;98784.91;4155497;28;20200;-51
2023/10/11 03:09:36;;;;;;;4.03;2.45;;;;;;;11.92;100.00;98783.81;4153648;28;20236;-52
2023/10/11 03:11:45;;;;;;;2.95;2.65;;;;;;;12.00;100.00;98788.91;4166741;28;20212;-51
2023/10/11 03:13:47;;;;;;;3.40;3.05;;;;;;;12.11;100.00;98778.91;4157254;28;20215;-49
2023/10/11 03:15:55;;;;;;;3.40;2.85;;;;;;;12.09;100.00;98776.41;4150950;28;20244;-52
2023/10/11 03:17:56;;;;;;;5.28;2.45;;;;;;;12.05;100.00;98768.94;4152431;28;20314;-52
2023/10/11 03:19:58;;;;;;;3.17;2.47;;;;;;;11.98;100.00;98771.84;4148767;28;20659;-49
2023/10/11 03:22:02;;;;;;;3.45;2.88;;;;;;;11.89;100.00;98770.63;4159291;28;20228;-50
2023/10/11 03:24:05;;;;;;;3.30;2.15;;;;;;;11.90;100.00;98764.06;4150442;28;20240;-49
2023/10/11 03:26:08;;;;;;;2.35;2.15;;;;;;;11.94;100.00;98761.66;4155710;28;20262;-50
2023/10/11 03:28:14;;;;;;;2.67;2.47;;;;;;;11.92;100.00;98772.03;4152035;28;20205;-49
2023/10/11 03:30:16;;;;;;;4.88;3.08;;;;;;;11.90;100.00;98769.53;4152515;28;20202;-49
2023/10/11 03:32:19;;;;;;;2.08;1.75;;;;;;;11.94;100.00;98770.72;4156734;28;20315;-52
2023/10/11 03:34:20;;;;;;;2.85;2.28;;;;;;;11.86;100.00;98765.66;4148924;28;20217;-49
2023/10/11 03:36:32;;;;;;;5.03;4.50;;;;;;;11.86;100.00;98765.66;4154209;28;20724;-49
2023/10/11 03:38:34;;;;;;;2.67;2.47;;;;;;;11.74;100.00;98756.72;4149779;28;20216;-49
2023/10/11 03:40:54;;;;;;;1.88;1.63;;;;;;;11.69;100.00;98756.63;4152978;28;20209;-52
2023/10/11 03:43:03;;;;;;;1.98;1.80;;;;;;;11.67;100.00;98753.31;4156016;28;20231;-49
2023/10/11 03:45:08;;;;;;;3.70;2.83;;;;;;;11.77;100.00;98756.19;4155112;28;20208;-49
2023/10/11 03:47:14;;;;;;;2.88;2.30;;;;;;;11.70;100.00;98754.72;4163826;28;20219;-52
2023/10/11 03:51:21;;;;;;;3.20;2.58;;;;;;;11.69;100.00;98759.38;4167753;28;20215;-50
2023/10/11 03:53:22;;;;;;;3.20;2.85;;;;;;;11.80;100.00;98766.66;4154728;28;20211;-50
2023/10/11 03:55:25;;;;;;;4.32;2.20;;;;;;;11.81;100.00;98760.09;4138372;28;20229;-52
2023/10/11 03:57:27;;;;;;;2.80;2.33;;;;;;;11.75;100.00;98763.84;4150224;28;20215;-49
2023/10/11 03:59:35;;;;;;;3.38;2.22;;;;;;;11.61;100.00;98768.03;4153046;28;21136;-51
2023/10/11 04:01:38;;;;;;;5.80;2.28;;;;;;;11.66;100.00;98770.84;4139390;28;20275;-52
2023/10/11 04:03:41;;;;;;;4.15;2.47;;;;;;;11.76;100.00;98765.50;4155416;28;20212;-49
2023/10/11 04:05:47;;;;;;;3.42;2.58;;;;;;;11.85;100.00;98758.50;4155186;28;20236;-50
2023/10/11 04:07:49;;;;;;;4.88;2.65;;;;;;;11.77;100.00;98761.66;4150666;28;20295;-51
2023/10/11 04:09:51;;;;;;;2.67;2.47;;;;;;;11.66;100.00;98759.88;4156645;28;20221;-49
2023/10/11 04:11:55;;;;;;;2.28;2.08;;;;;;;11.77;100.00;98760.88;4164278;28;20217;-51
2023/10/11 04:13:58;;;;;;;3.63;2.30;;;;;;;11.69;100.00;98759.38;4150298;28;20327;-51
2023/10/11 04:16:00;;;;;;;5.35;2.63;;;;;;;11.70;100.00;98758.28;4151599;28;20648;-50
2023/10/11 04:18:14;;;;;;;2.72;2.22;;;;;;;11.74;100.00;98756.72;4151895;28;20220;-51
2023/10/11 04:20:28;;;;;;;3.60;3.15;;;;;;;11.75;100.00;98758.38;4156359;28;20217;-50
2023/10/11 04:22:31;;;;;;;2.75;2.00;;;;;;;11.73;100.00;98757.78;4155675;28;20264;-51
2023/10/11 04:24:36;;;;;;;3.53;2.25;;;;;;;11.85;100.00;98758.50;4158473;28;20251;-49
2023/10/11 04:26:38;;;;;;;3.38;3.00;;;;;;;11.84;100.00;98756.03;4155419;28;20217;-50
2023/10/11 04:28:41;;;;;;;2.70;2.35;;;;;;;11.72;100.00;98747.06;4153572;28;20322;-49
2023/10/11 04:30:44;;;;;;;3.15;2.95;;;;;;;11.59;100.00;98751.00;4154405;28;20205;-50
2023/10/11 04:32:46;;;;;;;2.50;1.85;;;;;;;11.53;100.00;98748.38;4138121;28;20229;-50
2023/10/11 04:34:54;;;;;;;2.15;1.83;;;;;;;11.56;100.00;98748.72;4150178;28;20252;-50
2023/10/11 04:36:59;;;;;;;3.42;2.90;;;;;;;11.50;100.00;98752.44;4151791;28;20232;-54
2023/10/11 04:39:14;;;;;;;10.43;3.15;;;;;;;11.61;100.00;98751.56;4154527;28;20233;-50
2023/10/11 04:41:20;;;;;;;2.33;1.67;;;;;;;11.56;100.00;98751.47;4150161;28;20205;-49
2023/10/11 04:43:24;;;;;;;2.38;2.03;;;;;;;11.52;100.00;98753.03;4149166;28;20272;-49
2023/10/11 04:45:30;;;;;;;2.63;2.35;;;;;;;11.50;100.00;98751.66;4148599;28;20219;-49
2023/10/11 04:47:56;;;;;;;12.95;1.67;;;;;;;11.49;100.00;98759.03;4151771;28;20263;-49
2023/10/11 04:50:11;;;;;;;2.15;1.95;;;;;;;11.45;100.00;98757.84;4156786;28;20212;-52
2023/10/11 04:52:13;;;;;;;2.33;1.92;;;;;;;11.49;100.00;98759.03;4152551;28;20567;-49
2023/10/11 04:54:17;;;;;;;2.20;2.00;;;;;;;11.51;100.00;98756.84;4150775;28;20201;-49
2023/10/11 04:58:49;;;;;;;3.10;2.90;;;;;;;11.32;100.00;98752.69;4164291;28;20219;-49
2023/10/11 05:00:54;;;;;;;2.67;2.47;;;;;;;11.29;100.00;98758.69;4149523;28;20255;-50
2023/10/11 05:02:58;;;;;;;2.22;2.03;;;;;;;11.30;100.00;98763.09;4146657;28;20241;-50
2023/10/11 05:05:00;;;;;;;1.90;1.80;;;;;;;11.27;100.00;98762.75;4153952;28;20212;-49
2023/10/11 05:07:04;;;;;;;2.30;2.13;;;;;;;11.24;100.00;98764.06;4149538;28;20200;-49
2023/10/11 05:09:29;;;;;;;4.35;2.17;;;;;;;11.24;100.00;98766.00;4149836;28;20244;-52
2023/10/11 05:11:35;;;;;;;1.58;1.35;;;;;;;11.26;100.00;98772.06;4142842;28;20240;-51
2023/10/11 05:13:39;;;;;;;2.88;1.60;;;;;;;11.27;100.00;98771.81;4152344;28;20299;-51
2023/10/11 05:15:47;;;;;;;3.40;2.35;;;;;;;11.39;100.00;98772.56;4153281;28;20225;-49
2023/10/11 05:17:59;;;;;;;1.88;1.77;;;;;;;11.33;100.00;98768.09;4147868;28;20571;-50
2023/10/11 05:22:08;;;;;;;2.03;1.92;;;;;;;11.22;100.00;98762.66;4165627;28;20245;-50
2023/10/11 05:26:47;;;;;;;3.15;2.65;;;;;;;11.23;100.00;98759.69;4164372;28;20704;-52
2023/10/11 05:29:08;;;;;;;1.50;1.35;;;;;;;11.33;100.00;98753.53;4150670;28;20236;-49
2023/10/11 05:33:31;;;;;;;3.78;2.58;;;;;;;11.14;100.00;98757.59;4168042;28;20297;-49
2023/10/11 05:51:56;;;;;;;2.13;1.80;;;;;;;11.07;100.00;98771.47;4168028;28;20251;-49
2023/10/11 05:54:03;;;;;;;3.83;2.45;;;;;;;11.02;100.00;98774.09;4153943;28;20259;-49
2023/10/11 05:56:05;;;;;;;2.13;1.98;;;;;;;10.99;100.00;98768.28;4180310;28;20781;-50
2023/10/11 05:58:07;;;;;;;5.68;1.88;;;;;;;10.96;100.00;98769.63;4150611;28;20312;-49
2023/10/11 06:00:22;;;;;;;2.95;2.22;;;;;;;10.96;100.00;98779.72;4156992;28;20624;-50
2023/10/11 06:02:25;;;;;;;2.92;2.25;;;;;;;10.91;100.00;98772.25;4155711;28;20232;-51
2023/10/11 06:04:26;;;;;;;1.83;1.52;;;;;;;10.89;100.00;98785.38;4159272;28;20200;-51
2023/10/11 06:06:46;;;;;;;2.50;1.92;;;;;;;10.91;100.00;98776.91;4153906;28;20320;-54
2023/10/11 06:08:52;;;;;;;1.85;1.75;;;;;;;10.91;100.00;98780.47;4154013;28;20638;-51
2023/10/11 06:10:55;;;;;;;2.80;2.60;;;;;;;10.92;100.00;98776.63;4155527;28;20219;-51
2023/10/11 06:12:58;;;;;;;3.72;2.35;;;;;;;10.91;100.00;98783.19;4157809;28;20233;-49
2023/10/11 06:15:06;;;;;;;2.15;1.92;;;;;;;10.88;100.00;98773.84;4148774;28;20212;-50
2023/10/11 06:17:16;;;;;;;18.58;2.35;;;;;;;10.87;100.00;98775.72;4151514;28;20717;-50
2023/10/11 06:19:18;;;;;;;2.60;2.40;;;;;;;10.87;100.00;98783.13;4152258;28;20593;-49
2023/10/11 06:21:33;;;;;;;3.35;2.78;;;;;;;10.91;100.00;98780.47;4153469;28;20204;-51
2023/10/11 06:23:38;;;;;;;2.25;2.05;;;;;;;10.93;100.00;98781.06;4142191;28;20217;-51
2023/10/11 06:25:53;;;;;;;4.13;1.98;;;;;;;10.92;100.00;98781.31;4153040;28;20569;-50
2023/10/11 06:30:05;;;;;;;3.72;2.28;;;;;;;10.93;100.00;98802.97;4168488;28;20208;-50
2023/10/11 06:32:11;;;;;;;1.58;1.48;;;;;;;11.06;100.00;98802.66;4158519;28;20347;-50
2023/10/11 06:34:26;;;;;;;2.63;2.20;;;;;;;10.99;100.00;98802.00;4143597;28;20673;-50
2023/10/11 06:36:29;;;;;;;3.10;2.47;;;;;;;10.99;100.00;98807.47;4151082;28;20198;-49
2023/10/11 06:38:41;;;;;;;2.10;2.00;;;;;;;10.99;100.00;98804.72;4152592;28;20228;-52
2023/10/11 06:40:54;;;;;;;1.92;1.60;;;;;;;11.04;100.00;98809.47;4150084;28;20674;-49
2023/10/11 06:42:57;;;;;;;2.13;1.73;;;;;;;11.11;100.00;98805.47;4151161;28;20788;-49
2023/10/11 06:45:00;;;;;;;2.50;2.17;;;;;;;11.16;100.00;98808.31;4137367;28;20225;-50
2023/10/11 06:47:03;;;;;;;3.63;2.22;;;;;;;11.12;100.00;98795.38;4152725;28;20613;-51
2023/10/11 06:49:05;;;;;;;2.88;2.03;;;;;;;11.07;100.00;98798.84;4154782;28;20201;-51
2023/10/11 06:51:08;;;;;;;2.10;1.90;;;;;;;11.12;100.00;98807.13;4140269;28;20205;-50
2023/10/11 06:53:13;;;;;;;4.57;1.95;;;;;;;11.19;100.00;98810.56;4150750;28;20292;-52
2023/10/11 06:55:22;;;;;;;2.78;1.85;;;;;;;11.33;100.00;98808.34;4168640;28;20310;-52
2023/10/11 06:57:25;;;;;;;2.42;1.90;;;;;;;11.30;100.00;98804.19;4142757;28;20201;-52
2023/10/11 06:59:28;;;;;;;2.65;2.47;;;;;;;11.48;100.00;98795.72;4150072;28;20699;-51
2023/10/11 07:01:34;;;;;;;2.90;1.52;;;;;;;11.50;100.00;98796.31;4154377;28;20683;-50
2023/10/11 07:03:39;;;;;;;3.08;2.80;;;;;;;11.46;100.00;98797.06;4157801;28;20605;-50
2023/10/11 07:05:46;;;;;;;2.40;2.17;;;;;;;11.49;100.00;98791.06;4151409;28;20288;-50
2023/10/11 07:07:48;;;;;;;2.63;2.13;;;;;;;11.56;100.00;98792.56;4161017;28;20721;-49
2023/10/11 07:10:27;;;;;;;3.65;3.35;;;;;;;11.65;100.00;98802.06;4138582;28;20640;-49
2023/10/11 07:12:41;;;;;;;2.22;1.90;;;;;;;11.93;100.00;98799.22;4168114;28;20581;-49
2023/10/11 07:14:43;;;;;;;6.60;1.98;;;;;;;12.72;100.00;98809.63;4144167;28;20617;-49
2023/10/11 07:16:46;;;;;;;2.80;2.38;;;;;;;13.16;100.00;98816.72;4159780;28;20304;-49
2023/10/11 07:18:58;;;;;;;5.80;2.30;;;;;;;13.74;100.00;98819.47;4168140;28;20219;-49
2023/10/11 07:21:07;;;;;;;3.50;2.97;;;;;;;13.71;100.00;98802.69;4144442;28;20259;-49
2023/10/11 07:23:10;;;;;;;4.68;2.85;;;;;;;13.86;100.00;98809.13;4156009;28;20768;-49
2023/10/11 07:25:36;;;;;;;3.15;2.78;;;;;;;13.94;100.00;98814.13;4155833;28;20213;-49
2023/10/11 07:27:40;;;;;;;8.23;2.35;;;;;;;14.54;100.00;98813.69;4157618;28;20208;-50
2023/10/11 07:29:46;;;;;;;3.53;3.22;;;;;;;15.67;100.00;98808.78;4160771;28;20665;-51
2023/10/11 07:31:52;;;;;;;8.00;2.63;;;;;;;15.69;97.67;98814.84;4153186;28;20311;-49
2023/10/11 07:33:55;;;;;;;9.60;2.45;;;;;;;16.11;96.09;98809.03;4156586;28;20539;-49
2023/10/11 07:35:59;;;;;;;1.75;1.65;;;;;;;16.11;94.74;98809.03;4170683;28;20216;-49
2023/10/11 07:38:01;;;;;;;1.85;1.50;;;;;;;16.19;93.06;98806.53;4138134;28;20201;-49
2023/10/11 07:40:09;;;;;;;1.98;1.63;;;;;;;16.68;93.30;98807.53;4151531;28;20769;-50
2023/10/11 07:42:18;;;;;;;3.05;2.08;;;;;;;17.81;87.10;98821.00;4169262;28;20223;-50
2023/10/11 07:44:27;;;;;;;3.33;1.83;;;;;;;18.49;83.43;98832.84;4165119;28;20200;-49
2023/10/11 07:46:29;;;;;;;3.83;1.45;;;;;;;19.12;80.47;98826.00;4153500;28;20223;-49
2023/10/11 07:48:32;;;;;;;2.80;1.88;;;;;;;19.53;79.36;98832.69;4156527;28;20670;-51
2023/10/11 07:50:38;;;;;;;2.42;2.17;;;;;;;19.76;73.60;98817.88;4158936;28;20263;-47
2023/10/11 07:52:42;;;;;;;2.08;1.75;;;;;;;19.16;75.66;98832.59;4153144;28;21011;-49
2023/10/11 07:54:45;;;;;;;4.72;2.80;;;;;;;18.95;79.42;98831.22;4170321;28;20303;-49
2023/10/11 07:56:49;;;;;;;2.13;1.40;;;;;;;19.93;73.56;98821.78;4169236;28;20320;-48
2023/10/11 07:58:56;;;;;;;5.53;2.22;;;;;;;20.62;70.09;98830.00;4151034;28;20622;-49
2023/10/11 08:01:15;;;;;;;8.57;2.60;;;;;;;20.95;68.49;98831.59;4137909;28;20202;-49
2023/10/11 08:03:17;;;;;;;3.30;1.10;;;;;;;20.72;66.40;98834.53;4144027;28;20298;-48
2023/10/11 08:05:20;;;;;;;2.03;1.50;;;;;;;20.80;68.06;98836.59;4148701;28;20213;-49
2023/10/11 08:07:22;;;;;;;3.13;2.13;;;;;;;20.71;68.69;98836.47;4151566;28;20216;-48
2023/10/11 08:09:25;;;;;;;1.58;1.38;;;;;;;20.41;72.09;98839.03;4150286;28;20208;-49
2023/10/11 08:11:36;;;;;;;7.95;1.25;;;;;;;20.20;68.18;98837.72;4152893;28;20650;-49
2023/10/11 08:13:37;;;;;;;1.98;1.73;;;;;;;20.56;70.58;98833.16;4151669;28;20287;-49
2023/10/11 08:15:39;;;;;;;1.23;1.08;;;;;;;21.08;65.74;98830.75;4157023;28;20217;-48
2023/10/11 08:17:41;;;;;;;2.08;0.98;;;;;;;20.84;67.54;98827.31;4151201;28;20208;-50
2023/10/11 08:19:44;;;;;;;2.15;1.20;;;;;;;21.54;63.83;98838.94;4154746;28;20220;-50
2023/10/11 08:21:57;;;;;;;1.65;1.55;;;;;;;21.49;64.04;98836.25;4149983;28;20784;-49
2023/10/11 08:23:59;;;;;;;3.30;1.33;;;;;;;21.44;63.51;98842.78;4138196;28;20209;-50
2023/10/11 08:26:05;;;;;;;3.75;1.55;;;;;;;22.10;61.08;98844.88;4150638;28;20197;-49
2023/10/11 08:28:19;;;;;;;2.05;1.83;;;;;;;21.70;62.58;98835.53;4139087;28;20205;-49
2023/10/11 08:30:23;;;;;;;2.63;1.63;;;;;;;22.02;62.04;98838.09;4165697;28;21411;-49
2023/10/11 08:32:27;;;;;;;2.00;1.65;;;;;;;22.32;60.44;98848.47;4147104;28;20316;-48
2023/10/11 08:34:29;;;;;;;2.83;1.55;;;;;;;22.52;59.75;98847.97;4152487;28;20346;-50
2023/10/11 08:36:33;;;;;;;7.60;1.83;;;;;;;22.97;58.95;98848.72;4168171;28;20598;-48
2023/10/11 08:38:35;;;;;;;1.65;1.17;;;;;;;22.31;61.09;98846.00;4153177;28;20267;-48
2023/10/11 08:40:40;;;;;;;2.15;1.33;;;;;;;21.64;61.67;98847.09;4135253;28;20229;-49
2023/10/11 08:42:48;;;;;;;1.88;1.75;;;;;;;22.20;61.61;98844.63;4150538;28;20919;-49
2023/10/11 08:44:50;;;;;;;8.40;1.70;;;;;;;22.84;60.05;98839.28;4147101;28;20602;-48
2023/10/11 08:46:52;;;;;;;1.90;1.58;;;;;;;22.77;60.73;98844.50;4147332;28;20220;-49
2023/10/11 08:48:54;;;;;;;2.30;1.77;;;;;;;23.29;58.53;98845.53;4151255;28;20203;-48
2023/10/11 08:50:56;;;;;;;2.72;1.63;;;;;;;23.03;59.40;98836.25;4144817;28;20216;-47
2023/10/11 08:53:01;;;;;;;1.50;1.33;;;;;;;23.32;58.69;98837.38;4146791;28;20223;-49
2023/10/11 08:55:06;;;;;;;5.10;1.63;;;;;;;22.99;60.40;98838.88;4179673;28;20209;-47
2023/10/11 08:57:08;;;;;;;2.15;1.17;;;;;;;23.03;59.57;98836.25;4170400;28;20211;-47
2023/10/11 08:59:15;;;;;;;2.92;1.52;;;;;;;23.31;59.48;98851.66;4149780;28;20327;-47
2023/10/11 09:01:16;;;;;;;2.67;1.58;;;;;;;23.00;58.82;98848.06;4155366;28;20212;-48
2023/10/11 09:03:19;;;;;;;2.65;1.35;;;;;;;23.63;58.45;98845.63;4150254;28;20252;-49
2023/10/11 09:05:28;;;;;;;1.83;1.60;;;;;;;23.81;57.34;98832.16;4155893;28;20215;-49
2023/10/11 09:07:45;;;;;;;7.05;1.83;;;;;;;23.93;57.13;98837.16;4151211;28;20245;-53
2023/10/11 09:09:50;;;;;;;2.67;1.52;;;;;;;24.04;57.14;98844.03;4154060;28;20288;-48
2023/10/11 09:11:53;;;;;;;13.45;2.15;;;;;;;24.36;56.40;98838.75;4147433;28;20314;-49
2023/10/11 09:14:27;;;;;;;1.90;1.42;;;;;;;24.46;55.60;98838.38;4154762;28;20204;-50
2023/10/11 09:16:34;;;;;;;1.60;0.95;;;;;;;24.45;55.47;98836.75;4160756;28;20642;-50
2023/10/11 09:18:37;;;;;;;1.40;1.05;;;;;;;24.22;56.21;98829.72;4153618;28;20700;-53
2023/10/11 09:20:40;;;;;;;5.95;1.42;;;;;;;24.19;56.03;98835.97;4167539;28;20212;-53
2023/10/11 09:22:46;;;;;;;1.55;1.45;;;;;;;24.41;55.91;98827.34;4149560;28;20248;-49
2023/10/11 09:25:03;;;;;;;3.97;2.10;;;;;;;24.07;57.80;98827.41;4148590;28;20207;-49
2023/10/11 09:29:24;;;;;;;1.50;1.08;;;;;;;22.89;57.41;98822.38;4166006;28;20282;-51
2023/10/11 09:31:27;;;;;;;4.70;1.30;;;;;;;22.57;59.13;98821.94;4147501;28;20208;-48
2023/10/11 09:33:35;;;;;;;6.38;1.10;;;;;;;22.28;59.01;98815.97;4153953;28;20574;-51
2023/10/11 09:35:37;;;;;;;3.47;1.27;;;;;;;22.73;60.63;98820.34;4146099;28;20383;-49
2023/10/11 09:37:39;;;;;;;1.77;1.05;;;;;;;23.52;61.68;98819.16;4159864;28;20743;-48
2023/10/11 09:39:42;;;;;;;2.38;0.95;;;;;;;23.17;59.26;98825.81;4147512;28;20224;-54
2023/10/11 09:41:45;;;;;;;1.60;0.85;;;;;;;23.11;58.13;98821.50;4155204;28;20274;-50
2023/10/11 09:43:48;;;;;;;2.42;0.93;;;;;;;22.80;59.04;98826.28;4149215;28;20303;-48
2023/10/11 09:45:53;;;;;;;1.65;1.13;;;;;;;23.07;58.28;98826.06;4155955;28;20262;-48
2023/10/11 09:47:57;;;;;;;4.40;1.20;;;;;;;23.65;59.31;98818.19;4157677;28;20218;-53
2023/10/11 09:50:00;;;;;;;3.78;1.30;;;;;;;23.42;58.61;98827.81;4149798;28;20600;-49
2023/10/11 09:52:07;;;;;;;7.85;1.00;;;;;;;23.09;58.27;98829.34;4147596;28;20763;-49
2023/10/11 09:54:12;;;;;;;4.57;1.27;;;;;;;23.19;58.48;98823.50;4147684;28;20276;-48
2023/10/11 09:56:40;;;;;;;1.52;1.10;;;;;;;23.39;58.89;98828.50;4152464;28;20243;-49
2023/10/11 09:58:47;;;;;;;2.65;1.75;;;;;;;23.79;58.64;98823.28;4160246;28;20196;-48
2023/10/11 10:01:12;;;;;;;0.90;0.77;;;;;;;23.79;58.14;98828.88;4151104;28;20274;-50
2023/10/11 10:03:14;;;;;;;0.88;0.70;;;;;;;24.08;58.17;98825.44;4159753;28;20224;-50
2023/10/11 10:05:17;;;;;;;2.63;1.45;;;;;;;24.05;56.68;98821.34;4152776;28;20208;-51
2023/10/11 10:07:22;;;;;;;5.03;0.77;;;;;;;24.35;57.55;98813.88;4157164;28;20238;-48
2023/10/11 10:09:24;;;;;;;1.45;1.35;;;;;;;24.14;56.92;98816.53;4155282;28;20219;-50
2023/10/11 10:12:21;;;;;;;2.33;1.33;;;;;;;24.36;57.14;98805.16;4154748;28;20674;-49
2023/10/11 10:14:28;;;;;;;2.20;1.63;;;;;;;24.50;57.46;98811.38;4135351;28;20287;-48
2023/10/11 10:17:11;;;;;;;1.05;0.90;;;;;;;24.89;56.83;98808.31;4160509;28;20212;-47
2023/10/11 10:19:23;;;;;;;2.88;1.58;;;;;;;24.48;56.53;98813.72;4094135;28;20206;-50
2023/10/11 10:21:25;;;;;;;1.88;1.00;;;;;;;24.40;56.30;98817.31;4144730;28;20211;-48